createdAt,value
2023-03-11T00:00:10.229Z,51.98
2023-03-11T00:01:10.295Z,52.45
2023-03-11T00:02:10.331Z,52.37
2023-03-11T00:03:10.358Z,52.83
2023-03-11T00:04:10.411Z,51.91
2023-03-11T00:05:10.480Z,51.33
2023-03-11T00:06:10.521Z,51.69
2023-03-11T00:07:10.570Z,51.54
2023-03-11T00:08:10.635Z,53.43
2023-03-11T00:09:10.705Z,53.08
2023-03-11T00:10:10.757Z,53.12
2023-03-11T00:11:10.823Z,54.17
2023-03-11T00:12:10.867Z,54.48
2023-03-11T00:13:10.935Z,54.14
2023-03-11T00:14:11.054Z,53.36
2023-03-11T00:15:11.037Z,53.09
2023-03-11T00:16:11.133Z,53.01
2023-03-11T00:17:11.145Z,52.72
2023-03-11T00:18:11.205Z,52.29
2023-03-11T00:19:11.246Z,51.28
2023-03-11T00:20:11.266Z,51.49
2023-03-11T00:21:11.320Z,49.76
2023-03-11T00:22:11.373Z,51.35
2023-03-11T00:23:11.407Z,50.80
2023-03-11T00:24:11.448Z,50.72
2023-03-11T00:25:11.482Z,50.93
2023-03-11T00:26:11.514Z,50.82
2023-03-11T00:27:11.538Z,50.94
2023-03-11T00:28:11.574Z,51.00
2023-03-11T00:29:11.589Z,50.06
2023-03-11T00:30:11.615Z,50.06
2023-03-11T00:31:11.674Z,50.36
2023-03-11T00:32:11.677Z,50.59
2023-03-11T00:33:11.697Z,51.10
2023-03-11T00:34:11.700Z,52.65
2023-03-11T00:35:11.754Z,53.85
2023-03-11T00:36:11.863Z,52.85
2023-03-11T00:37:11.916Z,52.26
2023-03-11T00:38:12.755Z,52.14
2023-03-11T00:39:12.020Z,52.53
2023-03-11T00:40:12.060Z,51.73
2023-03-11T00:41:12.106Z,51.51
2023-03-11T00:42:12.147Z,51.36
2023-03-11T00:43:12.201Z,51.40
2023-03-11T00:44:12.225Z,52.11
2023-03-11T00:45:12.285Z,52.54
2023-03-11T00:46:12.362Z,51.98
2023-03-11T00:47:12.394Z,51.64
2023-03-11T00:48:12.454Z,51.68
2023-03-11T00:49:12.511Z,51.03
2023-03-11T00:50:12.570Z,49.97
2023-03-11T00:51:12.720Z,49.98
2023-03-11T00:52:12.684Z,48.98
2023-03-11T00:53:12.736Z,50.35
2023-03-11T00:54:12.778Z,50.84
2023-03-11T00:55:12.805Z,50.66
2023-03-11T00:56:12.844Z,50.69
2023-03-11T00:57:12.856Z,50.82
2023-03-11T00:58:12.944Z,50.55
2023-03-11T00:59:12.984Z,50.04
2023-03-11T01:00:13.008Z,50.11
2023-03-11T01:01:13.049Z,50.71
2023-03-11T01:02:13.040Z,50.12
2023-03-11T01:03:13.052Z,49.86
2023-03-11T01:04:13.124Z,49.86
2023-03-11T01:05:13.100Z,50.31
2023-03-11T01:06:13.107Z,50.08
2023-03-11T01:07:13.139Z,50.07
2023-03-11T01:08:13.151Z,48.93
2023-03-11T01:09:13.183Z,48.73
2023-03-11T01:10:13.215Z,49.62
2023-03-11T01:11:13.231Z,49.45
2023-03-11T01:12:13.276Z,49.51
2023-03-11T01:13:13.310Z,49.20
2023-03-11T01:14:13.455Z,49.32
2023-03-11T01:15:13.373Z,49.44
2023-03-11T01:16:13.503Z,49.73
2023-03-11T01:17:13.417Z,49.79
2023-03-11T01:18:13.448Z,49.93
2023-03-11T01:19:13.447Z,49.71
2023-03-11T01:20:13.491Z,50.17
2023-03-11T01:21:13.489Z,49.77
2023-03-11T01:22:13.518Z,50.59
2023-03-11T01:23:13.561Z,49.78
2023-03-11T01:24:13.550Z,49.53
2023-03-11T01:25:13.597Z,49.03
2023-03-11T01:26:13.665Z,48.51
2023-03-11T01:27:13.840Z,48.88
2023-03-11T01:28:14.009Z,48.05
2023-03-11T01:29:14.156Z,48.35
2023-03-11T01:30:14.333Z,48.23
2023-03-11T01:31:14.509Z,48.88
2023-03-11T01:32:14.691Z,48.98
2023-03-11T01:33:14.786Z,49.33
2023-03-11T01:34:14.953Z,49.53
2023-03-11T01:35:15.092Z,49.76
2023-03-11T01:58:19.263Z,47.16
2023-03-11T01:59:19.096Z,47.39
2023-03-11T02:00:19.250Z,45.77
2023-03-11T02:01:19.385Z,46.66
2023-03-11T02:02:19.418Z,46.64
2023-03-11T02:03:19.548Z,46.84
2023-03-11T02:04:19.511Z,47.00
2023-03-11T02:05:19.553Z,46.91
2023-03-11T02:06:19.594Z,47.53
2023-03-11T02:07:19.634Z,47.52
2023-03-11T02:08:19.684Z,47.56
2023-03-11T02:09:19.714Z,47.45
2023-03-11T02:10:19.765Z,47.71
2023-03-11T02:11:19.778Z,47.76
2023-03-11T02:12:19.818Z,47.65
2023-03-11T02:13:19.860Z,47.54
2023-03-11T02:14:19.887Z,46.45
2023-03-11T02:15:19.932Z,47.95
2023-03-11T02:16:20.004Z,47.30
2023-03-11T02:17:20.024Z,45.25
2023-03-11T02:18:20.061Z,45.43
2023-03-11T02:19:20.111Z,45.46
2023-03-11T02:20:20.156Z,44.73
2023-03-11T02:21:20.220Z,45.87
2023-03-11T02:22:20.290Z,45.75
2023-03-11T02:23:20.351Z,44.80
2023-03-11T02:24:20.403Z,45.43
2023-03-11T02:26:20.491Z,45.37
2023-03-11T02:27:20.546Z,45.15
2023-03-11T02:28:20.565Z,44.94
2023-03-11T02:29:20.632Z,44.38
2023-03-11T02:30:20.661Z,44.94
2023-03-11T02:31:20.687Z,45.44
2023-03-11T02:32:20.786Z,45.12
2023-03-11T02:33:20.735Z,44.84
2023-03-11T05:20:28.963Z,47.43
2023-03-11T05:21:29.016Z,47.33
2023-03-11T05:22:29.078Z,46.83
2023-03-11T05:23:29.116Z,46.66
2023-03-11T05:24:29.145Z,46.62
2023-03-11T05:25:29.171Z,46.29
2023-03-11T05:26:29.193Z,47.16
2023-03-11T05:27:29.198Z,48.09
2023-03-11T05:28:29.218Z,47.54
2023-03-11T05:29:29.247Z,47.38
2023-03-11T05:30:29.273Z,47.35
2023-03-11T05:31:29.395Z,47.24
2023-03-11T05:32:29.352Z,47.28
2023-03-11T05:33:29.323Z,46.68
2023-03-11T05:34:29.343Z,46.77
2023-03-11T05:35:29.368Z,47.48
2023-03-11T05:36:29.416Z,48.10
2023-03-11T05:37:29.472Z,47.55
2023-03-11T05:38:29.537Z,47.17
2023-03-11T05:39:29.606Z,47.24
2023-03-11T05:40:29.657Z,47.77
2023-03-11T05:41:29.717Z,47.76
2023-03-11T05:42:29.772Z,47.44
2023-03-11T05:43:29.887Z,47.34
2023-03-11T05:44:29.875Z,47.03
2023-03-11T05:45:29.898Z,46.96
2023-03-11T05:46:29.990Z,47.08
2023-03-11T05:47:29.970Z,46.59
2023-03-11T05:48:30.027Z,46.87
2023-03-11T05:49:30.055Z,47.29
2023-03-11T05:50:30.077Z,47.01
2023-03-11T05:51:30.111Z,47.15
2023-03-11T05:52:30.195Z,46.79
2023-03-11T05:53:30.233Z,46.66
2023-03-11T05:54:30.254Z,47.06
2023-03-11T05:55:30.287Z,46.82
2023-03-11T05:56:30.335Z,46.51
2023-03-11T05:57:30.388Z,46.67
2023-03-11T05:58:30.476Z,46.27
2023-03-11T05:59:30.502Z,46.33
2023-03-11T06:00:30.537Z,47.98
2023-03-11T06:01:30.614Z,48.89
2023-03-11T06:02:30.703Z,48.73
2023-03-11T06:03:30.807Z,49.01
2023-03-11T06:04:31.033Z,48.41
2023-03-11T06:05:30.975Z,48.42
2023-03-11T06:06:31.033Z,48.38
2023-03-11T06:07:31.171Z,48.44
2023-03-11T06:08:31.148Z,48.07
2023-03-11T06:09:31.213Z,47.48
2023-03-11T06:10:31.309Z,48.52
2023-03-11T06:11:31.415Z,48.48
2023-03-11T06:12:31.493Z,49.26
2023-03-11T06:13:31.576Z,49.65
2023-03-11T06:14:31.690Z,48.73
2023-03-11T06:15:31.769Z,49.33
2023-03-11T06:16:31.889Z,48.65
2023-03-11T06:17:31.945Z,48.25
2023-03-11T06:18:32.019Z,48.48
2023-03-11T06:19:32.087Z,48.36
2023-03-11T06:20:32.151Z,47.92
2023-03-11T06:21:32.221Z,48.13
2023-03-11T06:22:32.281Z,47.83
2023-03-11T06:23:32.396Z,48.37
2023-03-11T06:24:32.368Z,47.84
2023-03-11T06:25:32.424Z,47.75
2023-03-11T06:26:32.471Z,47.30
2023-03-11T06:27:32.527Z,47.24
2023-03-11T06:28:32.569Z,46.94
2023-03-11T06:29:32.619Z,46.49
2023-03-11T06:30:32.663Z,46.16
2023-03-11T06:31:32.796Z,46.79
2023-03-11T06:32:32.784Z,46.63
2023-03-11T06:33:32.791Z,46.56
2023-03-11T06:34:32.815Z,46.88
2023-03-11T06:35:32.890Z,46.66
2023-03-11T06:36:32.867Z,46.61
2023-03-11T06:37:32.879Z,46.93
2023-03-11T06:38:32.903Z,46.99
2023-03-11T06:39:32.944Z,47.13
2023-03-11T06:40:33.006Z,46.53
2023-03-11T06:41:33.110Z,47.27
2023-03-11T06:42:33.193Z,47.38
2023-03-11T06:44:33.372Z,46.76
2023-03-11T06:45:33.472Z,46.41
2023-03-11T06:46:33.495Z,46.06
2023-03-11T06:47:33.573Z,45.82
2023-03-11T06:48:33.661Z,45.91
2023-03-11T08:11:39.120Z,40.22
2023-03-11T08:12:39.247Z,40.27
2023-03-11T08:13:39.559Z,40.54
2023-03-11T08:14:39.736Z,40.34
2023-03-11T08:15:39.897Z,40.68
2023-03-11T08:16:40.033Z,40.90
2023-03-11T08:17:40.300Z,41.21
2023-03-11T08:18:40.442Z,41.23
2023-03-11T08:19:40.701Z,40.29
2023-03-11T08:20:40.854Z,40.00
2023-03-11T08:21:41.073Z,39.98
2023-03-11T08:22:55.616Z,39.54
2023-03-11T08:23:42.280Z,39.68
2023-03-11T08:24:41.206Z,39.00
2023-03-11T08:25:41.182Z,39.69
2023-03-11T08:26:41.181Z,39.56
2023-03-11T08:27:41.158Z,39.80
2023-03-11T08:28:41.148Z,39.82
2023-03-11T08:29:41.136Z,39.72
2023-03-11T08:30:42.097Z,39.96
2023-03-11T08:31:41.107Z,40.11
2023-03-11T08:32:41.147Z,40.22
2023-03-11T08:33:41.207Z,39.61
2023-03-11T08:34:41.390Z,40.48
2023-03-11T08:35:41.590Z,40.19
2023-03-11T08:36:41.817Z,40.90
2023-03-11T08:37:42.043Z,41.16
2023-03-11T08:38:42.257Z,40.83
2023-03-11T08:39:42.400Z,41.27
2023-03-11T08:40:42.556Z,41.02
2023-03-11T08:41:42.743Z,41.76
2023-03-11T08:42:43.831Z,41.43
2023-03-11T08:43:42.935Z,41.31
2023-03-11T08:44:42.930Z,41.55
2023-03-11T08:45:42.958Z,41.42
2023-03-11T08:46:43.002Z,42.26
2023-03-11T08:47:42.950Z,43.21
2023-03-11T08:48:42.960Z,42.75
2023-03-11T08:49:42.963Z,42.43
2023-03-11T08:50:53.396Z,42.62
2023-03-11T08:51:43.942Z,42.20
2023-03-11T08:52:42.919Z,42.58
2023-03-11T08:53:42.909Z,42.67
2023-03-11T08:54:42.882Z,41.93
2023-03-11T08:55:42.858Z,41.96
2023-03-11T08:56:42.856Z,41.68
2023-03-11T08:57:42.852Z,41.78
2023-03-11T08:58:42.850Z,41.63
2023-03-11T08:59:42.828Z,41.54
2023-03-11T09:00:42.811Z,41.96
2023-03-11T09:01:42.788Z,41.76
2023-03-11T09:02:42.838Z,41.77
2023-03-11T09:03:42.774Z,41.55
2023-03-11T09:04:42.762Z,42.07
2023-03-11T09:05:42.827Z,42.72
2023-03-11T09:06:42.868Z,42.53
2023-03-11T09:07:42.911Z,42.39
2023-03-11T09:08:42.966Z,42.38
2023-03-11T09:09:43.027Z,42.02
2023-03-11T09:10:43.070Z,42.30
2023-03-11T09:11:43.107Z,42.11
2023-03-11T09:12:43.171Z,42.34
2023-03-11T09:13:43.238Z,42.46
2023-03-11T09:14:43.253Z,42.13
2023-03-11T09:15:43.289Z,41.92
2023-03-11T09:16:43.321Z,42.48
2023-03-11T09:17:43.333Z,42.75
2023-03-11T09:18:43.345Z,43.37
2023-03-11T09:19:43.383Z,43.43
2023-03-11T09:20:43.427Z,43.02
2023-03-11T09:21:43.448Z,43.36
2023-03-11T09:22:43.481Z,42.93
2023-03-11T09:23:44.548Z,43.01
2023-03-11T09:24:43.599Z,42.32
2023-03-11T09:25:43.626Z,41.49
2023-03-11T09:26:43.700Z,41.59
2023-03-11T09:27:43.751Z,41.69
2023-03-11T09:28:43.818Z,42.37
2023-03-11T09:29:43.889Z,42.63
2023-03-11T09:30:43.948Z,42.26
2023-03-11T09:31:44.096Z,41.88
2023-03-11T09:32:44.101Z,42.18
2023-03-11T09:33:44.127Z,41.83
2023-03-11T09:34:44.180Z,41.83
2023-03-11T09:35:44.264Z,41.73
2023-03-11T09:36:44.263Z,41.54
2023-03-11T09:37:44.290Z,41.48
2023-03-11T09:38:44.327Z,41.34
2023-03-11T09:39:44.339Z,40.55
2023-03-11T09:40:46.873Z,40.32
2023-03-11T09:41:57.146Z,40.19
2023-03-11T09:42:45.509Z,40.36
2023-03-11T09:43:44.497Z,39.70
2023-03-11T09:45:44.464Z,40.27
2023-03-11T09:46:44.527Z,41.06
2023-03-11T09:47:44.423Z,40.90
2023-03-11T09:48:44.401Z,41.21
2023-03-11T09:49:44.381Z,40.82
2023-03-11T09:50:44.359Z,41.14
2023-03-11T09:51:44.337Z,41.83
2023-03-11T11:32:49.052Z,35.96
2023-03-11T11:33:49.113Z,36.14
2023-03-11T11:34:49.370Z,36.23
2023-03-11T11:35:49.547Z,36.94
2023-03-11T11:36:49.649Z,36.98
2023-03-11T11:37:49.813Z,37.01
2023-03-11T11:38:50.072Z,37.08
2023-03-11T11:39:50.273Z,36.76
2023-03-11T11:40:50.481Z,35.65
2023-03-11T11:41:50.674Z,35.85
2023-03-11T11:42:50.891Z,35.71
2023-03-11T11:43:51.084Z,35.92
2023-03-11T11:44:51.296Z,35.40
2023-03-11T11:45:51.558Z,35.96
2023-03-11T11:46:51.641Z,35.82
2023-03-11T11:47:51.741Z,35.69
2023-03-11T11:48:51.897Z,35.35
2023-03-11T11:49:52.035Z,35.73
2023-03-11T11:50:52.196Z,36.19
2023-03-11T11:51:52.320Z,35.84
2023-03-11T11:52:52.508Z,35.99
2023-03-11T11:53:52.639Z,36.05
2023-03-11T11:54:52.803Z,35.67
2023-03-11T11:55:53.035Z,35.44
2023-03-11T11:56:53.221Z,34.87
2023-03-11T11:57:53.420Z,34.59
2023-03-11T11:58:53.573Z,34.63
2023-03-11T11:59:54.010Z,34.58
2023-03-11T12:00:53.662Z,34.70
2023-03-11T12:01:53.734Z,34.85
2023-03-11T12:02:53.798Z,34.69
2023-03-11T12:03:53.902Z,35.30
2023-03-11T12:04:53.913Z,35.73
2023-03-11T12:05:56.131Z,35.66
2023-03-11T12:06:54.000Z,35.30
2023-03-11T12:07:53.996Z,34.83
2023-03-11T12:08:54.017Z,35.12
2023-03-11T12:09:54.019Z,34.99
2023-03-11T12:10:54.015Z,35.60
2023-03-11T12:11:53.998Z,35.14
2023-03-11T12:12:54.015Z,35.63
2023-03-11T12:13:54.031Z,35.86
2023-03-11T12:14:54.045Z,36.57
2023-03-11T12:15:54.072Z,35.68
2023-03-11T12:16:54.061Z,35.59
2023-03-11T12:17:54.062Z,35.72
2023-03-11T12:18:54.070Z,35.53
2023-03-11T12:19:54.087Z,36.07
2023-03-11T12:20:54.096Z,36.38
2023-03-11T12:21:54.261Z,36.46
2023-03-11T12:22:54.091Z,36.17
2023-03-11T12:23:55.149Z,35.85
2023-03-11T12:24:54.105Z,36.13
2023-03-11T12:25:54.117Z,36.60
2023-03-11T12:26:54.134Z,36.44
2023-03-11T12:27:54.133Z,36.39
2023-03-11T12:28:54.132Z,36.66
2023-03-11T12:29:54.127Z,36.54
2023-03-11T12:30:54.149Z,35.95
2023-03-11T12:31:54.155Z,36.00
2023-03-11T12:32:54.280Z,36.87
2023-03-11T12:33:54.151Z,36.99
2023-03-11T12:34:54.138Z,36.89
2023-03-11T12:35:54.146Z,36.50
2023-03-11T12:36:54.141Z,36.90
2023-03-11T12:37:54.113Z,36.86
2023-03-11T12:38:54.120Z,36.61
2023-03-11T12:39:54.111Z,36.15
2023-03-11T12:40:54.115Z,36.61
2023-03-11T12:41:54.122Z,36.82
2023-03-11T12:42:54.108Z,36.97
2023-03-11T12:43:54.100Z,37.15
2023-03-11T12:44:54.122Z,36.23
2023-03-11T12:45:54.119Z,37.23
2023-03-11T12:46:54.199Z,36.05
2023-03-11T12:47:54.131Z,36.85
2023-03-11T12:48:54.132Z,36.70
2023-03-11T12:49:54.139Z,36.80
2023-03-11T12:50:54.164Z,36.56
2023-03-11T12:51:54.174Z,36.63
2023-03-11T12:52:54.221Z,36.48
2023-03-11T12:53:54.226Z,36.89
2023-03-11T12:54:54.273Z,36.41
2023-03-11T12:55:54.322Z,35.89
2023-03-11T12:56:54.376Z,35.86
2023-03-11T12:57:54.447Z,36.13
2023-03-11T12:58:54.501Z,36.43
2023-03-11T12:59:54.578Z,36.08
2023-03-11T13:00:54.658Z,35.82
2023-03-11T13:01:54.800Z,36.09
2023-03-11T13:02:54.820Z,36.07
2023-03-11T13:03:54.849Z,36.33
2023-03-11T13:04:54.915Z,35.76
2023-03-11T13:05:54.972Z,35.61
2023-03-11T13:06:55.003Z,35.67
2023-03-11T13:07:55.053Z,35.46
2023-03-11T13:08:55.206Z,36.27
2023-03-11T13:09:55.390Z,36.17
2023-03-11T13:10:55.562Z,36.08
2023-03-11T13:11:55.737Z,36.27
2023-03-11T13:12:55.841Z,35.76
2023-03-11T13:13:55.920Z,36.13
2023-03-11T13:14:55.968Z,35.83
2023-03-11T13:15:56.049Z,36.11
2023-03-11T13:16:56.066Z,36.03
2023-03-11T13:17:56.122Z,36.42
2023-03-11T13:18:56.159Z,36.80
2023-03-11T13:19:56.228Z,36.79
2023-03-11T13:20:56.299Z,36.32
2023-03-11T13:21:56.328Z,37.14
2023-03-11T13:22:56.345Z,36.95
2023-03-11T13:23:56.386Z,37.03
2023-03-11T13:24:56.435Z,37.22
2023-03-11T13:25:56.503Z,37.03
2023-03-11T13:26:56.555Z,36.83
2023-03-11T13:27:56.595Z,36.50
2023-03-11T13:28:56.641Z,36.37
2023-03-11T13:29:56.679Z,36.25
2023-03-11T13:30:56.746Z,36.20
2023-03-11T13:31:56.781Z,36.45
2023-03-11T13:32:56.828Z,36.70
2023-03-11T13:33:56.846Z,36.93
2023-03-11T13:34:56.882Z,36.94
2023-03-11T13:35:56.995Z,36.81
2023-03-11T13:36:57.026Z,36.35
2023-03-11T14:22:59.075Z,36.09
2023-03-11T14:23:59.326Z,35.68
2023-03-11T14:24:59.431Z,36.01
2023-03-11T14:25:59.623Z,35.94
2023-03-11T14:26:59.791Z,35.79
2023-03-11T14:28:00.001Z,35.65
2023-03-11T14:29:00.177Z,36.08
2023-03-11T14:30:00.340Z,36.01
2023-03-11T14:31:00.496Z,35.86
2023-03-11T14:32:00.790Z,35.74
2023-03-11T18:46:08.980Z,55.42
2023-03-11T19:00:08.952Z,58.74
2023-03-11T19:01:09.062Z,59.30
2023-03-11T19:02:09.110Z,58.24
2023-03-11T19:03:09.157Z,58.69
2023-03-11T19:04:09.192Z,58.06
2023-03-11T19:05:09.376Z,59.11
2023-03-11T19:06:09.309Z,58.88
2023-03-11T19:07:09.367Z,59.11
2023-03-11T19:08:09.448Z,59.27
2023-03-11T19:09:09.534Z,60.14
2023-03-11T19:10:09.640Z,60.61
2023-03-11T19:11:09.750Z,60.63
2023-03-11T19:12:09.847Z,61.31
2023-03-11T19:13:09.957Z,61.32
2023-03-11T19:14:10.068Z,61.45
2023-03-11T19:15:10.160Z,60.87
2023-03-11T19:16:10.283Z,61.91
2023-03-11T19:17:10.439Z,63.04
2023-03-11T19:18:10.504Z,63.43
2023-03-11T19:19:11.947Z,62.24
2023-03-11T19:20:10.686Z,62.38
2023-03-11T19:21:10.831Z,63.56
2023-03-11T19:22:10.884Z,62.66
2023-03-11T19:23:10.947Z,63.84
2023-03-11T19:24:11.037Z,64.80
2023-03-11T19:25:11.108Z,64.00
2023-03-11T19:26:11.200Z,64.55
2023-03-11T19:27:11.220Z,64.20
2023-03-11T19:28:11.321Z,63.35
2023-03-11T19:29:11.424Z,63.92
2023-03-11T19:30:11.481Z,64.26
2023-03-11T19:31:11.596Z,63.84
2023-03-11T19:32:11.587Z,63.62
2023-03-11T19:33:11.671Z,64.21
2023-03-11T19:34:11.745Z,63.76
2023-03-11T19:35:11.822Z,63.60
2023-03-11T19:36:11.961Z,62.99
2023-03-11T19:37:12.029Z,62.26
2023-03-11T19:38:12.103Z,63.95
2023-03-11T19:39:12.210Z,64.22
2023-03-11T19:40:12.308Z,64.36
2023-03-11T19:42:12.479Z,64.66
2023-03-11T20:20:19.062Z,64.01
2023-03-11T20:21:19.272Z,63.51
2023-03-11T20:22:19.481Z,63.42
2023-03-11T20:23:19.624Z,64.83
2023-03-11T20:24:19.892Z,64.47
2023-03-11T20:25:20.033Z,65.26
2023-03-11T20:26:20.159Z,65.82
2023-03-11T20:27:20.281Z,65.43
2023-03-11T20:28:20.293Z,64.37
2023-03-11T20:29:20.353Z,64.59
2023-03-11T20:30:20.428Z,64.40
2023-03-11T20:31:20.545Z,63.83
2023-03-11T20:32:20.468Z,63.61
2023-03-11T20:33:20.511Z,63.93
2023-03-11T20:34:20.636Z,64.07
2023-03-11T20:35:20.600Z,64.21
2023-03-11T20:36:20.689Z,64.23
2023-03-11T20:37:20.656Z,63.63
2023-03-11T20:38:20.774Z,64.41
2023-03-11T20:39:20.795Z,64.91
2023-03-11T20:40:20.900Z,64.74
2023-03-11T20:41:20.874Z,64.98
2023-03-11T20:42:20.991Z,65.34
2023-03-11T20:43:21.080Z,65.97
2023-03-11T20:44:21.190Z,66.24
2023-03-11T20:45:21.312Z,65.99
2023-03-11T20:46:21.360Z,65.42
2023-03-11T20:47:21.529Z,66.41
2023-03-11T20:48:21.505Z,66.48
2023-03-11T20:49:21.699Z,66.14
2023-03-11T20:50:21.796Z,65.37
2023-03-11T20:51:21.830Z,65.54
2023-03-11T20:52:21.906Z,65.39
2023-03-11T20:53:21.945Z,65.30
2023-03-11T20:54:22.039Z,65.16
2023-03-11T20:55:22.061Z,65.50
2023-03-11T20:56:22.102Z,64.88
2023-03-11T20:57:22.211Z,64.53
2023-03-11T20:58:22.304Z,64.63
2023-03-11T20:59:22.378Z,64.73
2023-03-11T21:00:22.434Z,64.33
2023-03-11T21:01:22.695Z,64.19
2023-03-11T21:02:22.676Z,64.65
2023-03-11T21:03:22.765Z,64.60
2023-03-11T21:04:22.742Z,63.74
2023-03-11T21:05:22.835Z,63.11
2023-03-11T21:06:22.957Z,62.73
2023-03-11T21:07:23.079Z,62.37
2023-03-11T21:08:23.113Z,61.98
2023-03-11T21:09:23.267Z,61.89
2023-03-11T21:10:23.290Z,61.90
2023-03-11T21:11:23.470Z,61.68
2023-03-11T21:12:23.523Z,61.39
2023-03-11T21:13:23.685Z,61.15
2023-03-11T21:14:23.725Z,60.72
2023-03-11T21:15:23.813Z,60.60
2023-03-11T21:16:24.037Z,60.55
2023-03-11T21:17:24.047Z,60.71
2023-03-11T21:18:24.126Z,60.24
2023-03-11T21:19:24.283Z,60.28
2023-03-11T21:20:24.322Z,60.66
2023-03-11T21:21:24.320Z,59.96
2023-03-11T21:22:24.403Z,60.13
2023-03-11T21:23:24.464Z,59.82
2023-03-11T21:24:24.612Z,59.62
2023-03-11T21:25:24.695Z,59.61
2023-03-11T21:26:24.728Z,59.53
2023-03-11T21:27:24.849Z,60.47
2023-03-11T21:28:24.870Z,60.59
2023-03-11T21:34:25.422Z,59.73
2023-03-11T21:36:25.732Z,60.47
2023-03-11T22:16:29.047Z,59.26
2023-03-11T22:17:29.232Z,59.50
2023-03-11T22:18:29.296Z,59.49
2023-03-11T22:19:29.329Z,59.02
2023-03-11T22:20:29.330Z,58.90
2023-03-11T22:21:29.548Z,58.73
2023-03-11T22:22:29.469Z,58.73
2023-03-11T22:23:29.547Z,58.75
2023-03-11T22:24:29.649Z,58.65
2023-03-11T22:25:29.726Z,58.43
2023-03-11T22:26:29.821Z,58.30
2023-03-11T22:27:29.918Z,58.58
2023-03-11T22:28:29.988Z,58.38
2023-03-11T22:29:30.082Z,58.20
2023-03-11T22:30:30.177Z,58.21
2023-03-11T22:31:30.321Z,58.07
2023-03-11T22:32:30.392Z,58.32
2023-03-11T22:33:30.436Z,58.11
2023-03-11T22:34:30.522Z,57.93
2023-03-11T22:35:30.650Z,58.21
2023-03-11T22:36:30.682Z,57.98
2023-03-11T22:37:30.774Z,58.05
2023-03-11T22:38:30.863Z,58.25
2023-03-11T22:39:30.994Z,58.09
2023-03-11T22:40:31.054Z,59.75
2023-03-11T22:41:31.163Z,58.78
2023-03-11T22:42:31.281Z,59.10
2023-03-11T22:43:31.371Z,58.93
2023-03-11T22:44:31.473Z,60.37
2023-03-11T22:45:31.542Z,59.56
2023-03-11T22:46:31.621Z,60.48
2023-03-11T22:47:31.701Z,60.10
2023-03-11T22:48:31.789Z,59.74
2023-03-11T22:49:31.876Z,60.45
2023-03-11T22:50:31.991Z,59.73
2023-03-11T22:51:32.053Z,59.64
2023-03-11T22:52:32.128Z,59.36
2023-03-11T22:53:32.211Z,59.74
2023-03-11T22:54:32.328Z,59.30
2023-03-11T22:55:32.361Z,59.25
2023-03-11T22:56:32.440Z,59.32
2023-03-11T22:57:32.544Z,59.10
2023-03-11T22:59:32.660Z,59.07
2023-03-11T23:00:32.749Z,59.11
2023-03-11T23:01:32.906Z,58.92
2023-03-11T23:02:32.923Z,58.72
2023-03-11T23:03:33.109Z,58.58
2023-03-11T23:04:33.076Z,58.54
2023-03-11T23:05:33.149Z,58.68
2023-03-11T23:06:33.221Z,59.11
2023-03-11T23:07:33.302Z,59.21
2023-03-11T23:08:33.375Z,58.73
2023-03-11T23:09:33.451Z,58.65
2023-03-11T23:10:33.529Z,58.49
2023-03-11T23:11:33.603Z,58.93
2023-03-11T23:12:33.707Z,58.63
2023-03-11T23:13:33.791Z,58.39
2023-03-11T23:14:44.040Z,58.83
2023-03-11T23:15:34.910Z,59.31
2023-03-11T23:16:33.980Z,58.84
2023-03-11T23:17:34.028Z,58.82
2023-03-11T23:18:34.002Z,58.74
2023-03-11T23:19:34.036Z,58.62
2023-03-11T23:20:34.063Z,58.49
2023-03-11T23:21:34.120Z,58.40
2023-03-11T23:22:34.144Z,58.30
2023-03-11T23:23:34.188Z,59.17
2023-03-11T23:24:34.257Z,59.06
2023-03-11T23:25:34.296Z,59.12
2023-03-11T23:26:34.363Z,58.98
2023-03-11T23:27:34.463Z,58.97
2023-03-11T23:28:34.548Z,58.87
2023-03-11T23:29:34.626Z,59.19
2023-03-11T23:30:34.757Z,58.78
2023-03-11T23:31:34.799Z,58.76
2023-03-11T23:32:34.915Z,59.01
2023-03-11T23:33:34.978Z,58.84
2023-03-11T23:34:35.056Z,58.78
2023-03-11T23:35:35.166Z,58.76
2023-03-11T23:36:35.223Z,58.77
2023-03-11T23:37:35.304Z,58.59
2023-03-11T23:38:35.395Z,58.44
2023-03-11T23:39:35.465Z,59.05
2023-03-11T23:40:35.570Z,58.73
2023-03-11T23:41:35.645Z,58.40
2023-03-11T23:42:35.727Z,58.35
2023-03-11T23:43:35.819Z,58.43
2023-03-11T23:44:35.929Z,58.33
2023-03-11T23:45:35.999Z,58.22
2023-03-11T23:46:36.110Z,58.24
2023-03-11T23:47:36.176Z,58.27
2023-03-11T23:48:36.256Z,58.06
2023-03-11T23:49:36.344Z,58.53
2023-03-11T23:50:36.416Z,58.30
2023-03-11T23:51:36.523Z,58.51
2023-03-11T23:52:36.614Z,58.17
2023-03-11T23:53:36.696Z,58.42
2023-03-11T23:54:36.795Z,58.40
2023-03-11T23:55:36.893Z,58.33
2023-03-11T23:57:37.086Z,58.26
2023-03-11T23:58:37.174Z,58.85
2023-03-11T23:59:37.257Z,58.55
